createdAt,value
2019-02-23T00:02:14.200Z,102321.25
2019-02-23T00:05:17.873Z,102326.52
2019-02-23T00:08:21.219Z,102322.13
2019-02-23T00:11:26.229Z,102319.59
2019-02-23T00:14:29.465Z,102320.50
2019-02-23T00:17:33.436Z,102317.41
2019-02-23T00:20:36.548Z,102310.39
2019-02-23T00:23:39.786Z,102309.19
2019-02-23T00:26:43.300Z,102304.84
2019-02-23T00:29:46.866Z,102307.31
2019-02-23T00:32:50.385Z,102311.78
2019-02-23T00:35:53.905Z,102310.95
2019-02-23T00:38:57.120Z,102311.76
2019-02-23T00:42:01.073Z,102316.56
2019-02-23T00:45:04.458Z,102311.23
2019-02-23T00:48:07.702Z,102312.48
2019-02-23T00:51:10.779Z,102307.87
2019-02-23T00:54:14.288Z,102311.20
2019-02-23T00:57:18.115Z,102312.95
2019-02-23T01:00:21.093Z,102312.34
2019-02-23T01:03:24.153Z,102312.00
2019-02-23T01:06:27.104Z,102311.11
2019-02-23T01:09:30.306Z,102320.28
2019-02-23T01:12:33.272Z,102324.87
2019-02-23T01:15:36.553Z,102324.87
2019-02-23T01:18:39.915Z,102326.08
2019-02-23T01:21:43.196Z,102321.03
2019-02-23T01:24:46.439Z,102315.48
2019-02-23T01:27:50.068Z,102323.07
2019-02-23T01:30:53.253Z,102314.16
2019-02-23T01:33:56.200Z,102314.69
2019-02-23T01:36:59.728Z,102310.36
2019-02-23T01:40:03.332Z,102289.66
2019-02-23T01:43:06.767Z,102315.36
2019-02-23T01:46:10.013Z,102318.41
2019-02-23T01:49:13.002Z,102312.56
2019-02-23T01:52:15.959Z,102314.39
2019-02-23T01:55:19.264Z,102312.50
2019-02-23T01:58:22.507Z,102305.94
2019-02-23T02:01:25.460Z,102312.45
2019-02-23T02:04:28.699Z,102309.83
2019-02-23T02:07:33.055Z,102306.20
2019-02-23T02:10:36.012Z,102298.58
2019-02-23T02:13:39.369Z,102290.70
2019-02-23T02:16:42.393Z,102287.59
2019-02-23T02:19:45.700Z,102280.53
2019-02-23T02:22:48.919Z,102271.90
2019-02-23T02:25:51.878Z,102271.78
2019-02-23T02:28:55.129Z,102260.31
2019-02-23T02:31:58.672Z,102266.58
2019-02-23T02:35:01.655Z,102270.64
2019-02-23T02:38:05.842Z,102276.69
2019-02-23T02:41:08.794Z,102274.91
2019-02-23T02:44:12.286Z,102270.31
2019-02-23T02:47:16.281Z,102264.44
2019-02-23T02:50:24.344Z,102257.45
2019-02-23T02:53:24.864Z,102256.48
2019-02-23T02:56:28.096Z,102247.52
2019-02-23T02:59:31.044Z,102238.25
2019-02-23T03:02:33.969Z,102244.18
2019-02-23T03:05:37.526Z,102239.34
2019-02-23T03:08:41.039Z,102238.68
2019-02-23T03:11:44.681Z,102238.19
2019-02-23T03:14:48.162Z,102230.03
2019-02-23T03:17:51.684Z,102223.81
2019-02-23T03:20:54.939Z,102225.39
2019-02-23T03:23:58.721Z,102225.59
2019-02-23T03:27:01.690Z,102224.01
2019-02-23T03:30:06.571Z,102220.02
2019-02-23T03:33:09.524Z,102223.23
2019-02-23T03:36:12.501Z,102223.27
2019-02-23T03:39:15.720Z,102222.77
2019-02-23T03:42:19.268Z,102222.63
2019-02-23T03:45:22.200Z,102225.59
2019-02-23T03:48:25.481Z,102216.16
2019-02-23T03:51:28.802Z,102227.95
2019-02-23T03:54:32.339Z,102233.75
2019-02-23T03:57:35.580Z,102233.95
2019-02-23T04:00:40.082Z,102236.02
2019-02-23T04:03:43.033Z,102238.25
2019-02-23T04:06:45.974Z,102240.06
2019-02-23T04:09:49.248Z,102239.70
2019-02-23T04:12:52.794Z,102247.91
2019-02-23T04:15:57.150Z,102247.22
2019-02-23T04:19:00.736Z,102242.89
2019-02-23T04:22:04.277Z,102256.27
2019-02-23T04:25:08.086Z,102260.65
2019-02-23T04:28:11.581Z,102268.61
2019-02-23T04:31:15.187Z,102285.23
2019-02-23T04:34:18.149Z,102285.43
2019-02-23T04:37:21.373Z,102287.66
2019-02-23T04:40:24.641Z,102289.10
2019-02-23T04:43:27.912Z,102295.38
2019-02-23T04:46:31.183Z,102304.13
2019-02-23T04:49:34.136Z,102304.94
2019-02-23T04:52:37.677Z,102307.94
2019-02-23T04:55:40.987Z,102307.57
2019-02-23T04:58:44.244Z,102306.14
2019-02-23T05:01:47.529Z,102309.68
2019-02-23T05:04:51.077Z,102305.34
2019-02-23T05:07:54.015Z,102312.80
2019-02-23T05:10:57.246Z,102314.14
2019-02-23T05:14:00.429Z,102310.63
2019-02-23T05:17:04.452Z,102308.39
2019-02-23T05:20:07.488Z,102307.84
2019-02-23T05:23:11.111Z,102309.38
2019-02-23T05:26:14.452Z,102311.83
2019-02-23T05:29:17.407Z,102312.81
2019-02-23T05:32:20.634Z,102309.31
2019-02-23T05:35:24.449Z,102310.63
2019-02-23T05:38:28.006Z,102311.18
2019-02-23T05:41:31.522Z,102322.55
2019-02-23T05:44:34.457Z,102327.53
2019-02-23T05:47:37.731Z,102331.78
2019-02-23T05:50:40.963Z,102331.48
2019-02-23T05:53:44.027Z,102327.32
2019-02-23T05:56:47.318Z,102319.80
2019-02-23T05:59:50.894Z,102323.31
2019-02-23T06:02:54.162Z,102332.95
2019-02-23T06:05:57.486Z,102343.14
2019-02-23T06:09:00.451Z,102343.79
2019-02-23T06:12:03.657Z,102347.94
2019-02-23T06:15:10.886Z,102348.08
2019-02-23T06:18:14.702Z,102355.34
2019-02-23T06:21:17.983Z,102357.92
2019-02-23T06:24:21.235Z,102357.52
2019-02-23T06:27:24.475Z,102361.42
2019-02-23T06:30:27.733Z,102361.10
2019-02-23T06:33:30.692Z,102363.66
2019-02-23T06:36:33.660Z,102360.33
2019-02-23T06:39:36.627Z,102358.87
2019-02-23T06:42:39.910Z,102359.48
2019-02-23T06:45:42.889Z,102366.78
2019-02-23T06:48:46.393Z,102371.97
2019-02-23T06:51:49.593Z,102373.58
2019-02-23T06:54:55.008Z,102375.62
2019-02-23T06:57:58.202Z,102376.63
2019-02-23T07:01:01.152Z,102373.01
2019-02-23T07:04:04.372Z,102380.22
2019-02-23T07:07:07.909Z,102371.33
2019-02-23T07:10:11.288Z,102373.44
2019-02-23T07:13:14.566Z,102361.91
2019-02-23T07:16:17.833Z,102362.34
2019-02-23T07:19:20.813Z,102357.38
2019-02-23T07:22:24.092Z,102366.97
2019-02-23T07:25:27.094Z,102366.20
2019-02-23T07:28:30.667Z,102346.56
2019-02-23T07:31:33.944Z,102361.08
2019-02-23T07:34:37.439Z,102367.56
2019-02-23T07:37:40.970Z,102362.20
2019-02-23T07:40:44.197Z,102370.84
2019-02-23T07:43:47.474Z,102368.92
2019-02-23T07:46:50.953Z,102364.84
2019-02-23T07:49:55.049Z,102365.14
2019-02-23T07:52:58.233Z,102356.69
2019-02-23T07:56:01.526Z,102353.14
2019-02-23T07:59:04.672Z,102356.18
2019-02-23T08:02:08.207Z,102350.06
2019-02-23T08:05:11.714Z,102354.22
2019-02-23T08:08:15.043Z,102352.63
2019-02-23T08:11:18.416Z,102355.37
2019-02-23T08:14:21.637Z,102351.95
2019-02-23T08:17:24.643Z,102354.12
2019-02-23T08:20:27.616Z,102356.21
2019-02-23T08:23:30.880Z,102362.58
2019-02-23T08:26:34.136Z,102359.72
2019-02-23T08:29:37.144Z,102363.94
2019-02-23T08:32:40.392Z,102366.02
2019-02-23T08:35:43.363Z,102368.91
2019-02-23T08:38:47.075Z,102381.09
2019-02-23T08:41:50.961Z,102375.47
2019-02-23T08:44:53.895Z,102382.92
2019-02-23T08:47:57.155Z,102380.80
2019-02-23T08:51:01.778Z,102386.23
2019-02-23T08:54:05.419Z,102379.49
2019-02-23T08:57:08.660Z,102377.44
2019-02-23T09:00:13.881Z,102377.72
2019-02-23T09:03:17.153Z,102369.86
2019-02-23T09:06:21.212Z,102369.50
2019-02-23T09:09:24.171Z,102368.09
2019-02-23T09:12:27.555Z,102363.16
2019-02-23T09:15:30.484Z,102378.83
2019-02-23T09:18:33.470Z,102387.43
2019-02-23T09:21:36.973Z,102382.23
2019-02-23T09:24:40.463Z,102380.98
2019-02-23T09:27:44.233Z,102381.45
2019-02-23T09:30:48.449Z,102373.25
2019-02-23T09:33:51.689Z,102355.81
2019-02-23T09:36:55.901Z,102356.95
2019-02-23T09:39:59.146Z,102362.46
2019-02-23T09:43:02.204Z,102362.28
2019-02-23T09:46:05.150Z,102359.05
2019-02-23T09:49:08.721Z,102363.16
2019-02-23T09:52:11.652Z,102365.14
2019-02-23T09:55:14.736Z,102350.91
2019-02-23T09:58:17.718Z,102348.37
2019-02-23T10:01:20.648Z,102349.77
2019-02-23T10:04:23.604Z,102350.83
2019-02-23T10:07:26.603Z,102346.23
2019-02-23T10:10:29.552Z,102358.75
2019-02-23T10:13:32.815Z,102353.66
2019-02-23T10:16:36.061Z,102348.23
2019-02-23T10:19:40.359Z,102349.34
2019-02-23T10:22:43.316Z,102340.17
2019-02-23T10:25:47.270Z,102334.92
2019-02-23T10:28:50.308Z,102342.27
2019-02-23T10:31:53.297Z,102352.37
2019-02-23T10:34:56.852Z,102342.30
2019-02-23T10:37:59.871Z,102342.80
2019-02-23T10:41:03.115Z,102344.91
2019-02-23T10:44:06.683Z,102341.43
2019-02-23T10:47:10.196Z,102344.58
2019-02-23T10:50:13.627Z,102328.31
2019-02-23T10:53:17.529Z,102336.16
2019-02-23T10:56:21.329Z,102330.95
2019-02-23T10:59:24.269Z,102317.66
2019-02-23T11:02:27.232Z,102323.95
2019-02-23T11:05:30.161Z,102320.34
2019-02-23T11:08:33.126Z,102313.76
2019-02-23T11:11:36.433Z,102315.61
2019-02-23T11:14:39.683Z,102301.33
2019-02-23T11:17:42.645Z,102290.63
2019-02-23T11:20:45.598Z,102293.80
2019-02-23T11:23:48.955Z,102276.62
2019-02-23T11:26:52.539Z,102269.44
2019-02-23T11:29:55.732Z,102262.59
2019-02-23T11:32:58.968Z,102250.97
2019-02-23T11:36:02.244Z,102251.95
2019-02-23T11:39:06.051Z,102239.16
2019-02-23T11:42:09.803Z,102233.20
2019-02-23T11:45:12.950Z,102226.05
2019-02-23T11:48:16.504Z,102225.24
2019-02-23T11:51:19.792Z,102216.82
2019-02-23T11:54:22.732Z,102214.43
2019-02-23T11:57:25.764Z,102207.78
2019-02-23T12:00:28.986Z,102214.50
2019-02-23T12:03:31.945Z,102207.83
2019-02-23T12:06:34.893Z,102214.12
2019-02-23T12:09:37.866Z,102220.14
2019-02-23T12:12:41.313Z,102218.96
2019-02-23T12:15:44.517Z,102218.42
2019-02-23T12:18:47.643Z,102215.48
2019-02-23T12:21:50.999Z,102224.08
2019-02-23T12:24:54.223Z,102226.73
2019-02-23T12:27:57.508Z,102228.14
2019-02-23T12:31:00.454Z,102221.80
2019-02-23T12:34:03.847Z,102226.94
2019-02-23T12:37:07.422Z,102228.48
2019-02-23T12:40:10.582Z,102224.52
2019-02-23T12:43:13.978Z,102221.84
2019-02-23T12:46:17.511Z,102219.69
2019-02-23T12:49:20.795Z,102210.83
2019-02-23T12:52:24.331Z,102206.39
2019-02-23T12:55:27.271Z,102208.58
2019-02-23T12:58:30.428Z,102205.34
2019-02-23T13:01:33.675Z,102205.72
2019-02-23T13:04:36.722Z,102194.27
2019-02-23T13:07:39.663Z,102178.25
2019-02-23T13:10:42.662Z,102190.02
2019-02-23T13:14:48.206Z,102185.55
2019-02-23T13:18:28.318Z,102188.38
2019-02-23T13:22:22.800Z,102185.52
2019-02-23T13:26:11.750Z,102173.43
2019-02-23T13:30:08.855Z,102163.48
2019-02-23T13:33:53.595Z,102162.00
2019-02-23T13:38:08.010Z,102162.08
2019-02-23T13:41:49.090Z,102165.34
2019-02-23T13:45:34.109Z,102169.39
2019-02-23T13:49:34.215Z,102159.30
2019-02-23T13:53:31.681Z,102159.48
2019-02-23T13:57:40.800Z,102153.34
2019-02-23T14:01:26.548Z,102156.00
2019-02-23T14:05:47.940Z,102153.78
2019-02-23T14:09:47.489Z,102157.31
2019-02-23T14:13:55.787Z,102151.61
2019-02-23T14:17:53.015Z,102150.27
2019-02-23T14:21:35.459Z,102153.77
2019-02-23T14:25:34.684Z,102153.32
2019-02-23T14:29:29.343Z,102160.78
2019-02-23T14:33:40.072Z,102159.87
2019-02-23T14:37:11.156Z,102162.47
2019-02-23T14:41:09.041Z,102159.37
2019-02-23T14:44:59.304Z,102158.45
2019-02-23T14:48:34.228Z,102160.59
2019-02-23T14:52:48.909Z,102149.60
2019-02-23T14:57:07.822Z,102148.23
2019-02-23T15:01:03.659Z,102154.71
2019-02-23T15:05:04.243Z,102155.37
2019-02-23T15:09:17.544Z,102162.33
2019-02-23T15:13:06.145Z,102163.21
2019-02-23T15:16:55.183Z,102165.33
2019-02-23T15:20:52.192Z,102167.11
2019-02-23T15:25:13.276Z,102172.28
2019-02-23T15:28:41.568Z,102168.33
2019-02-23T15:33:08.285Z,102164.19
2019-02-23T15:37:00.631Z,102167.70
2019-02-23T15:40:56.142Z,102176.92
2019-02-23T15:45:12.256Z,102171.54
2019-02-23T15:49:26.417Z,102162.63
2019-02-23T15:52:29.389Z,102162.06
2019-02-23T15:55:33.295Z,102161.55
2019-02-23T15:58:36.525Z,102154.36
2019-02-23T16:01:39.571Z,102159.98
2019-02-23T16:04:42.840Z,102159.02
2019-02-23T16:07:45.801Z,102159.96
2019-02-23T16:10:49.585Z,102163.91
2019-02-23T16:13:53.102Z,102168.01
2019-02-23T16:16:56.039Z,102170.30
2019-02-23T16:19:59.275Z,102173.44
2019-02-23T16:23:02.908Z,102168.98
2019-02-23T16:26:05.947Z,102173.02
2019-02-23T16:29:09.644Z,102165.42
2019-02-23T16:32:12.899Z,102169.33
2019-02-23T16:35:16.420Z,102168.00
2019-02-23T16:38:19.386Z,102167.26
2019-02-23T16:41:22.342Z,102166.23
2019-02-23T16:44:25.497Z,102168.81
2019-02-23T16:47:28.792Z,102174.72
2019-02-23T16:50:32.039Z,102176.14
2019-02-23T16:53:35.263Z,102175.22
2019-02-23T16:56:38.225Z,102189.55
2019-02-23T16:59:41.207Z,102197.28
2019-02-23T17:02:44.348Z,102200.53
2019-02-23T17:05:47.640Z,102198.50
2019-02-23T17:08:50.638Z,102194.53
2019-02-23T17:11:53.892Z,102193.69
2019-02-23T17:14:57.173Z,102198.54
2019-02-23T17:18:00.710Z,102193.00
2019-02-23T17:21:03.669Z,102192.41
2019-02-23T17:24:07.184Z,102198.02
2019-02-23T17:27:10.153Z,102193.45
2019-02-23T17:30:13.208Z,102194.06
2019-02-23T17:33:16.165Z,102194.45
2019-02-23T17:36:19.131Z,102196.51
2019-02-23T17:39:22.468Z,102202.11
2019-02-23T17:42:28.307Z,102201.45
2019-02-23T17:45:30.383Z,102202.44
2019-02-23T17:48:33.744Z,102202.23
2019-02-23T17:51:37.503Z,102200.08
2019-02-23T17:54:40.760Z,102196.50
2019-02-23T17:57:44.372Z,102198.14
2019-02-23T18:00:47.332Z,102195.88
2019-02-23T18:03:51.565Z,102192.78
2019-02-23T18:06:54.538Z,102194.41
2019-02-23T18:09:57.522Z,102184.24
2019-02-23T18:13:00.750Z,102185.98
2019-02-23T18:16:03.741Z,102188.63
2019-02-23T18:19:07.364Z,102191.22
2019-02-23T18:22:11.012Z,102184.10
2019-02-23T18:25:14.644Z,102187.88
2019-02-23T18:28:17.721Z,102187.03
2019-02-23T18:31:21.011Z,102182.19
2019-02-23T18:34:25.335Z,102183.31
2019-02-23T18:37:28.917Z,102181.16
2019-02-23T18:40:32.698Z,102189.09
2019-02-23T18:43:36.180Z,102193.74
2019-02-23T18:46:39.227Z,102193.48
2019-02-23T18:49:42.276Z,102204.62
2019-02-23T18:52:45.833Z,102206.44
2019-02-23T18:55:48.881Z,102203.80
2019-02-23T18:58:52.038Z,102206.00
2019-02-23T19:01:55.106Z,102205.23
2019-02-23T19:04:58.711Z,102203.25
2019-02-23T19:08:01.985Z,102210.20
2019-02-23T19:11:05.298Z,102203.20
2019-02-23T19:14:08.846Z,102211.73
2019-02-23T19:17:12.175Z,102206.95
2019-02-23T19:20:15.507Z,102200.19
2019-02-23T19:23:18.599Z,102192.59
2019-02-23T19:26:23.381Z,102197.87
2019-02-23T19:29:26.926Z,102195.48
2019-02-23T19:32:29.888Z,102191.09
2019-02-23T19:35:32.921Z,102195.33
2019-02-23T19:38:35.989Z,102191.98
2019-02-23T19:41:39.312Z,102193.73
2019-02-23T19:44:42.271Z,102194.95
2019-02-23T19:47:45.300Z,102194.69
2019-02-23T19:50:53.862Z,102204.19
2019-02-23T19:53:58.349Z,102206.59
2019-02-23T19:57:02.644Z,102201.05
2019-02-23T20:00:07.266Z,102207.70
2019-02-23T20:03:11.437Z,102205.33
2019-02-23T20:06:15.166Z,102202.31
2019-02-23T20:09:18.555Z,102205.28
2019-02-23T20:12:21.618Z,102201.61
2019-02-23T20:15:24.582Z,102205.36
2019-02-23T20:18:27.966Z,102207.98
2019-02-23T20:21:30.945Z,102211.81
2019-02-23T20:24:33.991Z,102207.77
2019-02-23T20:27:37.583Z,102213.16
2019-02-23T20:30:40.659Z,102202.72
2019-02-23T20:33:43.989Z,102199.41
2019-02-23T20:36:47.065Z,102198.80
2019-02-23T20:39:50.122Z,102202.23
2019-02-23T20:42:53.183Z,102201.48
2019-02-23T20:45:56.453Z,102198.27
2019-02-23T20:48:59.783Z,102190.16
2019-02-23T20:52:03.104Z,102194.23
2019-02-23T20:55:06.706Z,102198.08
2019-02-23T20:58:09.945Z,102193.98
2019-02-23T21:01:12.917Z,102199.30
2019-02-23T21:04:16.410Z,102196.84
2019-02-23T21:07:20.183Z,102192.87
2019-02-23T21:10:23.525Z,102164.78
2019-02-23T21:13:26.573Z,102182.05
2019-02-23T21:16:29.814Z,102174.11
2019-02-23T21:19:33.034Z,102178.53
2019-02-23T21:22:36.113Z,102178.81
2019-02-23T21:25:40.169Z,102177.84
2019-02-23T21:28:44.226Z,102175.95
2019-02-23T21:31:47.265Z,102176.11
2019-02-23T21:34:50.468Z,102176.11
2019-02-23T21:37:53.701Z,102176.36
2019-02-23T21:40:57.575Z,102170.92
2019-02-23T21:44:00.512Z,102174.17
2019-02-23T21:47:03.473Z,102175.82
2019-02-23T21:50:06.705Z,102169.46
2019-02-23T21:53:10.010Z,102171.27
2019-02-23T21:56:13.001Z,102176.37
2019-02-23T21:59:15.993Z,102168.97
2019-02-23T22:02:19.245Z,102172.41
2019-02-23T22:05:22.579Z,102166.38
2019-02-23T22:08:25.911Z,102165.34
2019-02-23T22:11:29.398Z,102158.08
2019-02-23T22:14:32.931Z,102154.30
2019-02-23T22:17:35.894Z,102157.24
2019-02-23T22:20:39.103Z,102156.72
2019-02-23T22:23:42.522Z,102157.22
2019-02-23T22:26:45.482Z,102155.20
2019-02-23T22:29:48.778Z,102156.22
2019-02-23T22:32:51.762Z,102158.07
2019-02-23T22:35:54.709Z,102156.92
2019-02-23T22:38:57.943Z,102150.30
2019-02-23T22:42:00.995Z,102153.16
2019-02-23T22:45:04.339Z,102156.58
2019-02-23T22:48:07.611Z,102152.98
2019-02-23T22:51:10.841Z,102161.66
2019-02-23T22:54:14.152Z,102158.72
2019-02-23T22:57:17.424Z,102159.37
2019-02-23T23:00:27.381Z,102165.17
2019-02-23T23:03:32.502Z,102157.23
2019-02-23T23:06:35.571Z,102161.89
2019-02-23T23:09:38.808Z,102164.55
2019-02-23T23:12:42.050Z,102164.63
2019-02-23T23:15:45.343Z,102165.73
2019-02-23T23:18:48.277Z,102165.79
2019-02-23T23:21:51.251Z,102155.87
2019-02-23T23:24:55.536Z,102154.14
2019-02-23T23:27:58.855Z,102151.86
2019-02-23T23:31:01.851Z,102141.45
2019-02-23T23:34:05.433Z,102136.67
2019-02-23T23:37:08.646Z,102133.88
2019-02-23T23:40:11.868Z,102135.58
2019-02-23T23:43:16.195Z,102136.86
2019-02-23T23:46:19.740Z,102134.41
2019-02-23T23:49:22.684Z,102127.23
2019-02-23T23:52:26.310Z,102128.55
2019-02-23T23:55:29.292Z,102124.19
2019-02-23T23:58:32.768Z,102122.05
